Time;durP1;ratioP1;P1;durP2;ratioP2;P2;SDS_P1;SDS_P2;PMS_P1;PMS_P2;Temp;Humidity;BMP_temperature;BMP_pressure;BME280_temperature;BME280_humidity;BME280_pressure;Samples;Min_cycle;Max_cycle;Signal;HPM_P1;HPM_P2
2024/02/20 00:00:26;;;;;;;1999.90;999.90;;;;;;;6.51;100.00;102687.00;10214219;29;20054;-68
2024/02/20 00:05:29;;;;;;;1999.90;999.90;;;;;;;6.71;100.00;102680.75;10214689;29;20056;-68
2024/02/20 00:10:31;;;;;;;1999.90;999.90;;;;;;;6.60;100.00;102674.78;10212891;29;20467;-68
2024/02/20 00:15:34;;;;;;;1999.90;999.90;;;;;;;6.73;100.00;102675.53;10214587;29;20115;-68
2024/02/20 00:20:38;;;;;;;1999.90;999.90;;;;;;;6.67;100.00;102668.63;10214419;29;20071;-68
2024/02/20 00:25:43;;;;;;;1999.90;999.90;;;;;;;6.70;100.00;102672.06;10214594;29;20062;-68
2024/02/20 00:30:46;;;;;;;1999.90;999.90;;;;;;;6.64;100.00;102679.06;10213564;29;20067;-68
2024/02/20 00:35:48;;;;;;;1999.90;999.90;;;;;;;6.64;100.00;102679.94;10213053;29;20127;-68
2024/02/20 00:40:51;;;;;;;1999.90;999.90;;;;;;;6.72;100.00;102673.78;10214074;29;20058;-68
2024/02/20 00:45:54;;;;;;;1999.90;999.90;;;;;;;6.56;100.00;102673.97;10214006;29;20056;-68
2024/02/20 00:50:56;;;;;;;1999.90;999.90;;;;;;;6.58;100.00;102690.41;10213903;29;20081;-68
2024/02/20 00:55:59;;;;;;;1999.90;999.90;;;;;;;6.66;100.00;102682.53;10214004;29;20055;-68
2024/02/20 01:01:01;;;;;;;1999.90;999.90;;;;;;;6.59;100.00;102686.06;10213734;29;20058;-68
2024/02/20 01:06:05;;;;;;;1999.90;999.90;;;;;;;6.55;100.00;102697.41;10211832;29;20094;-68
2024/02/20 01:11:08;;;;;;;1999.90;999.90;;;;;;;6.37;100.00;102695.81;10211810;29;20056;-68
2024/02/20 01:16:10;;;;;;;1999.90;999.90;;;;;;;6.52;100.00;102695.69;10218054;29;20079;-69
2024/02/20 01:21:13;;;;;;;1999.90;999.90;;;;;;;6.36;100.00;102696.72;10219820;29;20053;-68
2024/02/20 01:26:15;;;;;;;1999.90;999.90;;;;;;;6.40;100.00;102701.00;10218454;29;20059;-68
2024/02/20 01:31:17;;;;;;;1999.90;999.90;;;;;;;6.18;100.00;102693.41;10220091;29;20059;-68
2024/02/20 01:36:20;;;;;;;1999.90;999.90;;;;;;;6.35;100.00;102689.78;10219855;29;20051;-68
2024/02/20 01:41:22;;;;;;;1999.90;999.90;;;;;;;6.33;100.00;102685.44;10219062;29;20515;-68
2024/02/20 01:46:25;;;;;;;1999.90;999.90;;;;;;;6.33;100.00;102693.25;10218896;29;20399;-68
2024/02/20 01:51:29;;;;;;;1999.90;999.90;;;;;;;6.43;100.00;102694.03;10219287;29;20083;-68
2024/02/20 01:56:35;;;;;;;1999.90;999.90;;;;;;;6.39;100.00;102704.47;10219142;29;20052;-68
2024/02/20 02:01:37;;;;;;;1999.90;999.90;;;;;;;6.44;100.00;102711.38;10217844;29;20089;-68
2024/02/20 02:06:41;;;;;;;1999.90;999.90;;;;;;;6.50;100.00;102716.50;10218760;29;20127;-68
2024/02/20 02:11:43;;;;;;;1999.90;999.90;;;;;;;6.56;100.00;102689.59;10216710;29;20064;-68
2024/02/20 02:16:46;;;;;;;1999.90;999.90;;;;;;;6.49;100.00;102699.19;10216604;29;20150;-68
2024/02/20 02:21:48;;;;;;;1999.90;999.90;;;;;;;6.39;100.00;102700.16;10218176;29;20115;-68
2024/02/20 02:26:51;;;;;;;1999.90;999.90;;;;;;;6.55;100.00;102700.84;10216218;29;20047;-68
2024/02/20 02:31:53;;;;;;;1999.90;999.90;;;;;;;6.49;100.00;102704.41;10217178;29;20069;-68
2024/02/20 02:36:59;;;;;;;1999.90;999.90;;;;;;;6.44;100.00;102718.31;10217613;29;20127;-68
2024/02/20 02:42:01;;;;;;;1999.90;999.90;;;;;;;6.44;100.00;102719.19;10217377;29;20055;-68
2024/02/20 02:47:06;;;;;;;1999.90;999.90;;;;;;;6.51;100.00;102723.44;10217140;29;20130;-68
2024/02/20 02:52:08;;;;;;;1999.90;999.90;;;;;;;6.37;100.00;102720.13;10215243;29;20052;-68
2024/02/20 02:57:11;;;;;;;1999.90;999.90;;;;;;;6.39;100.00;102723.56;10215054;29;20488;-68
2024/02/20 03:02:14;;;;;;;1999.90;999.90;;;;;;;6.50;100.00;102721.72;10216637;29;20051;-69
2024/02/20 03:07:16;;;;;;;1999.90;999.90;;;;;;;6.38;100.00;102714.03;10216385;29;20048;-68
2024/02/20 03:12:19;;;;;;;1999.90;999.90;;;;;;;6.38;100.00;102724.44;10215514;29;20067;-69
2024/02/20 03:17:21;;;;;;;1999.90;999.90;;;;;;;6.45;100.00;102714.84;10216056;29;20052;-68
2024/02/20 03:22:23;;;;;;;1999.90;999.90;;;;;;;6.47;100.00;102720.88;10214731;29;20058;-71
2024/02/20 03:27:26;;;;;;;1999.90;999.90;;;;;;;6.50;100.00;102719.09;10214540;29;20048;-71
2024/02/20 03:32:28;;;;;;;1999.90;999.90;;;;;;;6.47;100.00;102718.28;10215552;29;20059;-71
2024/02/20 03:37:31;;;;;;;1999.90;999.90;;;;;;;6.36;100.00;102721.00;10214640;29;20071;-71
2024/02/20 03:42:33;;;;;;;1999.90;999.90;;;;;;;6.24;100.00;102721.13;10215331;29;20056;-71
2024/02/20 03:47:35;;;;;;;1999.90;999.90;;;;;;;6.41;100.00;102718.34;10215146;29;20079;-71
2024/02/20 03:52:38;;;;;;;1999.90;999.90;;;;;;;6.38;100.00;102708.81;10215049;29;20083;-71
2024/02/20 03:57:41;;;;;;;1999.90;999.90;;;;;;;6.45;100.00;102717.44;10214956;29;20051;-71
2024/02/20 04:02:44;;;;;;;1999.90;999.90;;;;;;;6.40;100.00;102707.06;10213186;29;20476;-71
2024/02/20 04:07:46;;;;;;;1999.90;999.90;;;;;;;6.41;100.00;102706.19;10213853;29;20047;-69
2024/02/20 04:12:49;;;;;;;1999.90;999.90;;;;;;;6.31;100.00;102704.56;10214720;29;20083;-69
2024/02/20 04:17:51;;;;;;;1999.90;999.90;;;;;;;6.32;100.00;102694.16;10214039;29;20127;-69
2024/02/20 04:22:54;;;;;;;1999.90;999.90;;;;;;;6.49;100.00;102699.19;10213832;29;20047;-68
2024/02/20 04:27:57;;;;;;;1999.90;999.90;;;;;;;6.61;100.00;102694.75;10213066;29;20048;-69
2024/02/20 04:33:00;;;;;;;1999.90;999.90;;;;;;;6.63;100.00;102688.63;10213602;29;20411;-69
2024/02/20 04:38:02;;;;;;;1999.90;999.90;;;;;;;6.60;100.00;102687.81;10214171;29;20088;-69
2024/02/20 04:43:04;;;;;;;1999.90;999.90;;;;;;;6.35;100.00;102695.84;10214099;29;20051;-69
2024/02/20 04:48:07;;;;;;;1999.90;999.90;;;;;;;6.40;100.00;102699.25;10214167;29;20058;-68
2024/02/20 04:53:10;;;;;;;1999.90;999.90;;;;;;;6.29;100.00;102694.16;10221494;29;20053;-68
2024/02/20 04:58:12;;;;;;;1999.90;999.90;;;;;;;6.53;100.00;102696.56;10221304;29;20052;-68
2024/02/20 05:03:14;;;;;;;1999.90;999.90;;;;;;;6.51;100.00;102688.75;10221151;29;20058;-68
2024/02/20 05:08:17;;;;;;;1999.90;999.90;;;;;;;6.48;100.00;102679.25;10220442;29;20087;-69
2024/02/20 05:13:19;;;;;;;1999.90;999.90;;;;;;;6.49;100.00;102680.13;10219028;29;20051;-69
2024/02/20 05:18:22;;;;;;;1999.90;999.90;;;;;;;6.35;100.00;102688.03;10219964;29;20488;-69
2024/02/20 05:23:24;;;;;;;1999.90;999.90;;;;;;;6.39;100.00;102683.66;10227631;23;20087;-69
2024/02/20 05:28:27;;;;;;;1999.90;999.90;;;;;;;6.44;100.00;102684.47;10219104;29;20051;-69
2024/02/20 05:33:29;;;;;;;1999.90;999.90;;;;;;;6.44;100.00;102690.56;10220141;29;20083;-69
2024/02/20 05:38:32;;;;;;;1999.90;999.90;;;;;;;6.47;100.00;102692.25;10219948;29;20086;-69
2024/02/20 05:43:37;;;;;;;1999.90;999.90;;;;;;;6.40;100.00;102701.00;10219705;29;20047;-69
2024/02/20 05:48:41;;;;;;;1999.90;999.90;;;;;;;6.46;100.00;102696.63;10218774;29;20400;-69
2024/02/20 05:53:43;;;;;;;1999.90;999.90;;;;;;;6.61;100.00;102693.00;10218199;29;20052;-69
2024/02/20 05:58:46;;;;;;;1999.90;999.90;;;;;;;6.33;100.00;102701.06;10217976;29;20131;-68
2024/02/20 06:03:48;;;;;;;1999.90;999.90;;;;;;;6.41;100.00;102695.78;10218196;29;20079;-69
2024/02/20 06:08:51;;;;;;;1999.90;999.90;;;;;;;6.28;100.00;102697.63;10217550;29;20083;-69
2024/02/20 06:13:53;;;;;;;1999.90;999.90;;;;;;;6.40;100.00;102688.84;10218599;29;20066;-68
2024/02/20 06:18:56;;;;;;;1999.90;999.90;;;;;;;6.41;100.00;102684.53;10216607;29;20480;-69
2024/02/20 06:23:59;;;;;;;1999.90;999.90;;;;;;;6.48;100.00;102691.41;10217795;29;20082;-69
2024/02/20 06:29:02;;;;;;;1999.90;999.90;;;;;;;6.44;100.00;102681.88;10216117;29;20131;-68
2024/02/20 06:34:09;;;;;;;1999.90;999.90;;;;;;;6.38;100.00;102681.97;10217230;29;20411;-71
2024/02/20 06:39:11;;;;;;;1999.90;999.90;;;;;;;6.55;100.00;102681.78;10217649;29;20047;-69
2024/02/20 06:44:14;;;;;;;1999.90;999.90;;;;;;;6.67;100.00;102684.25;10217553;29;20048;-69
2024/02/20 06:49:16;;;;;;;1999.90;999.90;;;;;;;6.64;100.00;102687.75;10217106;29;20054;-69
2024/02/20 06:54:19;;;;;;;1999.90;999.90;;;;;;;6.59;100.00;102701.69;10217073;29;20055;-69
2024/02/20 06:59:21;;;;;;;1999.90;999.90;;;;;;;6.47;100.00;102713.97;10216207;29;20054;-68
2024/02/20 07:04:24;;;;;;;1999.90;999.90;;;;;;;6.50;100.00;102708.69;10216610;29;20051;-69
2024/02/20 07:09:26;;;;;;;1999.90;999.90;;;;;;;6.44;100.00;102726.09;10198896;29;20440;-70
2024/02/20 07:14:29;;;;;;;1999.90;999.90;;;;;;;6.44;100.00;102729.59;10213928;29;20471;-70
2024/02/20 07:19:31;;;;;;;1999.90;999.90;;;;;;;6.69;100.00;102721.53;10215011;29;20047;-70
2024/02/20 07:24:33;;;;;;;1999.90;999.90;;;;;;;6.67;100.00;102718.97;10214487;29;20110;-69
2024/02/20 07:29:41;;;;;;;1999.90;999.90;;;;;;;6.56;100.00;102727.75;10214620;29;20043;-70
2024/02/20 07:34:46;;;;;;;1999.90;999.90;;;;;;;6.75;100.00;102718.88;10214614;29;20118;-70
2024/02/20 07:39:49;;;;;;;1999.90;999.90;;;;;;;6.56;100.00;102727.75;10213839;29;20055;-70
2024/02/20 07:44:51;;;;;;;1999.90;999.90;;;;;;;6.92;100.00;102718.69;10214714;29;20056;-70
2024/02/20 07:49:54;;;;;;;1999.90;999.90;;;;;;;7.07;100.00;102718.50;10213344;29;20410;-70
2024/02/20 07:54:56;;;;;;;1999.90;999.90;;;;;;;7.03;100.00;102703.81;10214631;29;20411;-70
2024/02/20 07:59:59;;;;;;;1999.90;999.90;;;;;;;7.22;100.00;102707.03;10213791;29;20574;-70
2024/02/20 08:05:01;;;;;;;1999.90;999.90;;;;;;;7.36;100.00;102696.44;10213551;29;20055;-70
2024/02/20 08:10:05;;;;;;;1999.90;999.90;;;;;;;7.36;100.00;102703.38;10213846;29;20411;-70
2024/02/20 08:15:08;;;;;;;1999.90;999.90;;;;;;;7.62;100.00;102703.03;10214270;29;20496;-70
2024/02/20 08:20:11;;;;;;;1999.90;999.90;;;;;;;7.37;100.00;102705.13;10214604;29;20052;-70
2024/02/20 08:25:14;;;;;;;1999.90;999.90;;;;;;;7.45;100.00;102700.66;10218092;29;20063;-70
2024/02/20 08:30:17;;;;;;;1999.90;999.90;;;;;;;7.61;100.00;102699.53;10222427;29;20103;-70
2024/02/20 08:35:19;;;;;;;1999.90;999.90;;;;;;;7.81;100.00;102707.06;10222283;29;20055;-70
2024/02/20 08:40:22;;;;;;;1999.90;999.90;;;;;;;8.14;100.00;102691.78;10221401;29;20495;-70
2024/02/20 08:45:25;;;;;;;1999.90;999.90;;;;;;;7.99;100.00;102703.31;10220676;29;20047;-70
2024/02/20 08:50:30;;;;;;;1999.90;999.90;;;;;;;8.09;100.00;102709.25;10204233;29;20052;-70
2024/02/20 08:55:33;;;;;;;1999.90;999.90;;;;;;;8.15;100.00;102717.00;10219763;29;20431;-70
2024/02/20 09:00:35;;;;;;;1999.90;999.90;;;;;;;7.90;100.00;102721.75;10218463;29;20071;-70
2024/02/20 09:05:38;;;;;;;1999.90;999.90;;;;;;;8.02;100.00;102725.91;10221207;29;20052;-70
2024/02/20 09:10:41;;;;;;;1999.90;999.90;;;;;;;8.60;100.00;102713.63;10219210;29;20487;-70
2024/02/20 09:15:45;;;;;;;1999.90;999.90;;;;;;;8.42;100.00;102721.75;10220276;29;20052;-70
2024/02/20 09:20:47;;;;;;;1999.90;999.90;;;;;;;8.73;100.00;102715.13;10220675;29;20106;-70
2024/02/20 09:25:50;;;;;;;1999.90;999.90;;;;;;;9.09;100.00;102712.69;10218430;29;20064;-70
2024/02/20 09:30:53;;;;;;;1999.90;999.90;;;;;;;9.23;100.00;102707.16;10218427;29;20402;-70
2024/02/20 09:35:55;;;;;;;1999.90;999.90;;;;;;;9.15;100.00;102710.84;10219512;29;20051;-70
2024/02/20 09:41:00;;;;;;;1999.90;999.90;;;;;;;8.80;100.00;102715.88;10219916;29;20051;-69
2024/02/20 09:46:10;;;;;;;1999.90;999.90;;;;;;;8.85;100.00;102723.63;10218009;29;20058;-70
2024/02/20 09:51:14;;;;;;;1999.90;999.90;;;;;;;9.17;100.00;102724.72;10218335;29;20050;-70
2024/02/20 09:56:18;;;;;;;1999.90;999.90;;;;;;;9.10;100.00;102713.53;10218176;29;20058;-70
2024/02/20 10:01:23;;;;;;;1999.90;999.90;;;;;;;9.67;100.00;102717.53;10217942;29;20050;-70
2024/02/20 10:06:26;;;;;;;1999.90;999.90;;;;;;;10.41;100.00;102707.91;10217842;29;20051;-70
2024/02/20 10:11:28;;;;;;;1999.90;999.90;;;;;;;10.20;100.00;102707.53;10216914;29;20547;-70
2024/02/20 10:16:31;;;;;;;1999.90;999.90;;;;;;;10.25;100.00;102701.31;10217491;29;20106;-70
2024/02/20 10:21:33;;;;;;;1999.90;999.90;;;;;;;9.93;100.00;102689.88;10216672;29;20048;-70
2024/02/20 10:26:37;;;;;;;1999.90;999.90;;;;;;;10.14;100.00;102671.03;10217596;29;20087;-69
2024/02/20 10:31:39;;;;;;;1999.90;999.90;;;;;;;9.75;100.00;102678.09;10217920;29;20055;-69
2024/02/20 10:36:42;;;;;;;1999.90;999.90;;;;;;;9.88;100.00;102670.84;10217750;29;20047;-70
2024/02/20 10:41:44;;;;;;;1999.90;999.90;;;;;;;10.21;100.00;102666.50;10217719;29;20052;-70
2024/02/20 10:46:46;;;;;;;1999.90;999.90;;;;;;;10.83;100.00;102663.09;10216461;29;20054;-70
2024/02/20 10:51:50;;;;;;;1999.90;999.90;;;;;;;10.84;100.00;102654.31;10215983;29;20048;-70
2024/02/20 10:56:54;;;;;;;1999.90;999.90;;;;;;;10.53;100.00;102654.34;10215271;29;20495;-70
2024/02/20 11:01:56;;;;;;;1999.90;999.90;;;;;;;10.45;100.00;102653.69;10215664;29;20048;-70
2024/02/20 11:06:59;;;;;;;1999.90;999.90;;;;;;;10.36;100.00;102649.56;10215517;29;20059;-70
2024/02/20 11:12:09;;;;;;;1999.90;999.90;;;;;;;10.71;100.00;102643.34;10215239;29;20062;-70
2024/02/20 11:17:15;;;;;;;1999.90;999.90;;;;;;;10.49;100.00;102642.22;10216300;29;20052;-70
2024/02/20 11:22:30;;;;;;;1999.90;999.90;;;;;;;9.93;100.00;102621.84;10216066;29;20064;-70
2024/02/20 11:27:44;;;;;;;1999.90;999.90;;;;;;;10.38;100.00;102611.97;10215145;29;20060;-70
2024/02/20 11:32:52;;;;;;;1999.90;999.90;;;;;;;10.38;100.00;102605.88;10214639;29;20126;-69
2024/02/20 11:37:55;;;;;;;1999.90;999.90;;;;;;;10.50;97.65;102607.28;10214483;29;20052;-70
2024/02/20 11:43:04;;;;;;;1999.90;999.90;;;;;;;10.99;98.71;102591.88;10215437;29;20051;-69
2024/02/20 11:48:08;;;;;;;1999.90;999.90;;;;;;;10.45;97.33;102585.59;10215272;29;20052;-69
2024/02/20 11:53:15;;;;;;;1999.90;999.90;;;;;;;11.33;93.88;102578.56;10214051;29;20055;-70
2024/02/20 11:58:20;;;;;;;1999.90;999.90;;;;;;;11.64;90.03;102578.44;10213628;29;20099;-70
2024/02/20 12:03:30;;;;;;;1999.90;999.90;;;;;;;11.58;86.08;102580.41;10214018;29;20090;-69
2024/02/20 12:08:53;;;;;;;1999.90;999.90;;;;;;;12.16;86.75;102567.09;10197289;29;20458;-70
2024/02/20 12:13:59;;;;;;;1999.90;999.90;;;;;;;11.84;88.79;102548.88;10213727;29;20106;-69
2024/02/20 12:19:01;;;;;;;1999.90;999.90;;;;;;;11.86;87.28;102554.94;10213539;29;20079;-69
2024/02/20 12:24:22;;;;;;;1999.90;999.90;;;;;;;11.83;87.03;102544.53;10213732;29;20056;-69
2024/02/20 12:29:24;;;;;;;1999.90;999.90;;;;;;;11.89;87.38;102541.72;10197480;29;20043;-70
2024/02/20 12:34:27;;;;;;;1999.90;999.90;;;;;;;12.64;85.20;102529.38;10213061;29;20057;-70
2024/02/20 12:39:39;;;;;;;1999.90;999.90;;;;;;;12.01;85.90;102539.59;10214287;29;20044;-69
2024/02/20 12:44:41;;;;;;;1999.90;999.90;;;;;;;12.27;83.41;102522.88;10213156;29;20402;-70
2024/02/20 12:49:44;;;;;;;1999.90;999.90;;;;;;;13.06;83.76;102494.41;10212679;29;20095;-70
2024/02/20 12:54:46;;;;;;;1999.90;999.90;;;;;;;12.09;84.64;102482.44;10212878;29;20055;-69
2024/02/20 12:59:49;;;;;;;1999.90;999.90;;;;;;;12.08;83.47;102464.94;10213938;29;20058;-69
2024/02/20 13:04:51;;;;;;;1999.90;999.90;;;;;;;11.73;83.40;102474.06;10213201;29;20134;-69
2024/02/20 13:09:54;;;;;;;1999.90;999.90;;;;;;;11.65;84.97;102483.09;10213287;29;20073;-69
2024/02/20 13:14:56;;;;;;;1999.90;999.90;;;;;;;11.86;84.09;102467.47;10219433;29;20052;-67
2024/02/20 13:19:59;;;;;;;1999.90;999.90;;;;;;;11.23;84.53;102464.41;10219524;29;20495;-67
2024/02/20 13:25:02;;;;;;;1999.90;999.90;;;;;;;11.53;84.90;102471.25;10219780;29;20082;-68
2024/02/20 13:30:05;;;;;;;1999.90;999.90;;;;;;;11.79;83.06;102456.34;10219676;29;20476;-68
2024/02/20 13:35:08;;;;;;;1999.90;999.90;;;;;;;11.82;82.52;102434.41;10219759;29;20053;-67
2024/02/20 13:40:12;;;;;;;1999.90;999.90;;;;;;;11.45;83.71;102439.19;10218122;29;20048;-67
2024/02/20 13:45:14;;;;;;;1999.90;999.90;;;;;;;11.59;83.57;102443.09;10218010;29;20545;-68
2024/02/20 13:50:17;;;;;;;1999.90;999.90;;;;;;;12.14;82.44;102430.59;10218841;29;20083;-68
2024/02/20 13:55:19;;;;;;;1999.90;999.90;;;;;;;12.10;80.27;102405.34;10219417;29;20079;-68
2024/02/20 14:00:22;;;;;;;1999.90;999.90;;;;;;;12.96;78.48;102394.06;10219188;29;20052;-68
2024/02/20 14:05:24;;;;;;;1999.90;999.90;;;;;;;14.49;73.15;102376.63;10217186;29;20514;-68
2024/02/20 14:10:27;;;;;;;1999.90;999.90;;;;;;;15.05;72.02;102369.50;10218754;29;20127;-68
2024/02/20 14:15:30;;;;;;;1999.90;999.90;;;;;;;15.02;70.09;102365.22;10218081;29;20535;-68
2024/02/20 14:20:34;;;;;;;1999.90;999.90;;;;;;;13.85;74.46;102362.13;10218463;29;20048;-68
2024/02/20 14:25:37;;;;;;;1999.90;999.90;;;;;;;15.58;70.30;102347.38;10217814;29;20060;-68
2024/02/20 14:30:40;;;;;;;1999.90;999.90;;;;;;;16.37;65.23;102348.31;10216820;29;20061;-68
2024/02/20 14:35:54;;;;;;;1999.90;999.90;;;;;;;14.01;68.49;102328.91;10217894;29;20054;-67
2024/02/20 14:40:57;;;;;;;1999.90;999.90;;;;;;;13.31;71.30;102331.16;10200922;29;20054;-68
2024/02/20 14:45:59;;;;;;;1999.90;999.90;;;;;;;13.03;71.23;102328.91;10215794;29;20082;-68
2024/02/20 14:51:02;;;;;;;1999.90;999.90;;;;;;;13.53;68.66;102338.13;10217205;29;20059;-68
2024/02/20 14:56:04;;;;;;;1999.90;999.90;;;;;;;13.12;71.96;102353.97;10215891;29;20055;-68
2024/02/20 15:01:07;;;;;;;1999.90;999.90;;;;;;;12.06;74.12;102370.50;10216288;29;20411;-67
2024/02/20 15:06:12;;;;;;;1999.90;999.90;;;;;;;12.01;75.89;102368.97;10216652;29;20063;-68
2024/02/20 15:11:16;;;;;;;1999.90;999.90;;;;;;;11.89;75.74;102358.00;10215892;29;20488;-67
2024/02/20 15:16:19;;;;;;;1999.90;999.90;;;;;;;11.63;77.62;102373.84;10214621;29;20411;-70
2024/02/20 15:21:22;;;;;;;1999.90;999.90;;;;;;;11.84;76.31;102380.94;10199255;29;20060;-68
2024/02/20 15:26:25;;;;;;;1999.90;999.90;;;;;;;12.08;76.00;102381.78;10215179;29;20405;-68
2024/02/20 15:31:28;;;;;;;1999.90;999.90;;;;;;;11.77;78.53;102396.94;10215714;29;20051;-68
2024/02/20 15:36:31;;;;;;;1999.90;999.90;;;;;;;11.66;76.89;102395.56;10215302;29;20079;-68
2024/02/20 15:41:34;;;;;;;1999.90;999.90;;;;;;;11.63;75.42;102397.47;10215023;29;20134;-68
2024/02/20 15:46:37;;;;;;;1999.90;999.90;;;;;;;10.81;78.16;102402.91;10213651;29;20487;-68
2024/02/20 15:51:43;;;;;;;1999.90;999.90;;;;;;;10.94;77.97;102392.84;10198299;29;20052;-68
2024/02/20 15:56:45;;;;;;;1999.90;999.90;;;;;;;10.95;79.76;102384.09;10197555;29;20411;-68
2024/02/20 16:01:47;;;;;;;1999.90;999.90;;;;;;;10.71;80.60;102372.69;10213809;29;20381;-68
2024/02/20 16:06:50;;;;;;;1999.90;999.90;;;;;;;10.75;83.99;102382.13;10213286;29;20076;-68
2024/02/20 16:11:52;;;;;;;1999.90;999.90;;;;;;;10.34;85.23;102381.69;10214514;29;20054;-68
2024/02/20 16:16:55;;;;;;;1999.90;999.90;;;;;;;10.21;86.38;102397.75;10214669;29;20052;-68
2024/02/20 16:21:57;;;;;;;1999.90;999.90;;;;;;;10.11;86.71;102400.69;10213972;29;20480;-68
2024/02/20 16:27:00;;;;;;;1999.90;999.90;;;;;;;10.29;85.61;102401.88;10213858;29;20138;-69
2024/02/20 16:32:02;;;;;;;1999.90;999.90;;;;;;;9.91;88.42;102398.66;10214326;29;20047;-68
2024/02/20 16:37:05;;;;;;;1999.90;999.90;;;;;;;10.00;89.16;102401.00;10213756;29;20054;-68
2024/02/20 16:42:07;;;;;;;1999.90;999.90;;;;;;;9.97;88.41;102394.09;10212498;29;20103;-68
2024/02/20 16:47:10;;;;;;;1999.90;999.90;;;;;;;9.62;89.72;102397.72;10219144;29;20063;-68
2024/02/20 16:52:15;;;;;;;1999.90;999.90;;;;;;;9.94;90.43;102388.97;10219709;29;20577;-68
2024/02/20 16:57:18;;;;;;;1999.90;999.90;;;;;;;9.83;90.83;102381.44;10221664;29;20055;-68
2024/02/20 17:02:20;;;;;;;1999.90;999.90;;;;;;;9.73;92.01;102373.88;10221447;29;20259;-68
2024/02/20 17:07:23;;;;;;;1999.90;999.90;;;;;;;9.70;92.78;102372.22;10221150;29;20082;-68
2024/02/20 17:12:25;;;;;;;1999.90;999.90;;;;;;;9.75;95.10;102361.59;10220723;29;20052;-68
2024/02/20 17:17:28;;;;;;;1999.90;999.90;;;;;;;9.79;95.14;102356.25;10220872;29;20051;-68
2024/02/20 17:22:32;;;;;;;1999.90;999.90;;;;;;;9.26;95.76;102361.22;10220008;29;20077;-69
2024/02/20 17:27:35;;;;;;;1999.90;999.90;;;;;;;9.65;94.84;102363.66;10219531;29;20055;-68
2024/02/20 17:32:37;;;;;;;1999.90;999.90;;;;;;;9.57;95.28;102355.16;10220218;29;20127;-68
2024/02/20 17:37:39;;;;;;;1999.90;999.90;;;;;;;9.42;96.57;102354.69;10232685;23;20064;-67
2024/02/20 17:42:43;;;;;;;1999.90;999.90;;;;;;;9.38;96.28;102350.44;10218199;29;20048;-69
2024/02/20 17:47:46;;;;;;;1999.90;999.90;;;;;;;9.55;95.99;102352.59;10219220;29;20514;-70
2024/02/20 17:52:49;;;;;;;1999.90;999.90;;;;;;;9.49;94.65;102345.75;10219014;29;20136;-69
2024/02/20 17:57:52;;;;;;;1999.90;999.90;;;;;;;9.22;97.21;102338.69;10219078;29;20062;-69
2024/02/20 18:02:55;;;;;;;1999.90;999.90;;;;;;;9.47;96.90;102352.78;10219187;29;20048;-69
2024/02/20 18:07:57;;;;;;;1999.90;999.90;;;;;;;9.41;96.40;102339.03;10219060;29;20134;-69
2024/02/20 18:13:00;;;;;;;1999.90;999.90;;;;;;;9.17;97.17;102330.13;10218609;29;20079;-69
2024/02/20 18:18:02;;;;;;;1999.90;999.90;;;;;;;9.18;98.21;102331.81;10218623;29;20130;-69
2024/02/20 18:23:06;;;;;;;1999.90;999.90;;;;;;;9.11;99.70;102346.81;10218408;29;20106;-69
2024/02/20 18:28:08;;;;;;;1999.90;999.90;;;;;;;9.25;100.00;102325.53;10217569;29;20487;-69
2024/02/20 18:33:13;;;;;;;1999.90;999.90;;;;;;;9.38;100.00;102320.81;10217828;29;20056;-69
2024/02/20 18:38:15;;;;;;;1999.90;999.90;;;;;;;9.18;100.00;102323.97;10217025;29;20134;-69
2024/02/20 18:43:18;;;;;;;1999.90;999.90;;;;;;;9.06;100.00;102325.16;10216983;29;20479;-69
2024/02/20 18:48:23;;;;;;;1999.90;999.90;;;;;;;9.08;100.00;102318.16;10216763;29;20495;-69
2024/02/20 18:53:26;;;;;;;1999.90;999.90;;;;;;;9.17;100.00;102307.44;10217194;29;20047;-69
2024/02/20 18:58:28;;;;;;;1999.90;999.90;;;;;;;9.17;100.00;102297.00;10217004;29;20058;-69
2024/02/20 19:03:34;;;;;;;1999.90;999.90;;;;;;;9.05;100.00;102297.34;10215936;29;20075;-70
2024/02/20 19:08:43;;;;;;;1999.90;999.90;;;;;;;8.87;100.00;102317.81;10215251;29;20392;-69
2024/02/20 19:13:46;;;;;;;1999.90;999.90;;;;;;;9.13;100.00;102329.34;10216496;29;20056;-69
2024/02/20 19:18:48;;;;;;;1999.90;999.90;;;;;;;9.06;100.00;102331.28;10215768;29;20061;-69
2024/02/20 19:23:51;;;;;;;1999.90;999.90;;;;;;;9.03;100.00;102327.88;10215531;29;20056;-69
2024/02/20 19:28:53;;;;;;;1999.90;999.90;;;;;;;9.07;100.00;102314.69;10215782;29;20130;-69
2024/02/20 19:33:56;;;;;;;1999.90;999.90;;;;;;;9.21;100.00;102314.31;10214576;29;20048;-69
2024/02/20 19:38:59;;;;;;;1999.90;999.90;;;;;;;9.09;100.00;102309.41;10214708;29;20070;-70
2024/02/20 19:44:02;;;;;;;1999.90;999.90;;;;;;;9.14;100.00;102297.06;10214721;29;20482;-69
2024/02/20 19:49:05;;;;;;;1999.90;999.90;;;;;;;9.14;100.00;102298.84;10214745;29;20094;-69
2024/02/20 19:54:08;;;;;;;1999.90;999.90;;;;;;;8.97;100.00;102288.84;10215199;29;20055;-69
2024/02/20 19:59:13;;;;;;;1999.90;999.90;;;;;;;9.24;100.00;102297.69;10213404;29;20052;-69
2024/02/20 20:04:15;;;;;;;1999.90;999.90;;;;;;;8.98;100.00;102298.38;10213000;29;20411;-69
2024/02/20 20:09:19;;;;;;;1999.90;999.90;;;;;;;9.17;100.00;102304.84;10214920;29;20056;-69
2024/02/20 20:14:23;;;;;;;1999.90;999.90;;;;;;;9.13;100.00;102295.38;10213473;29;20059;-69
2024/02/20 20:19:25;;;;;;;1999.90;999.90;;;;;;;9.10;100.00;102296.31;10217033;29;20060;-69
2024/02/20 20:24:28;;;;;;;1999.90;999.90;;;;;;;9.11;100.00;102287.59;10222160;29;20510;-69
2024/02/20 20:29:31;;;;;;;1999.90;999.90;;;;;;;9.04;100.00;102285.16;10220839;29;20380;-69
2024/02/20 20:34:35;;;;;;;1999.90;999.90;;;;;;;8.96;100.00;102269.72;10222497;29;20063;-69
2024/02/20 20:39:38;;;;;;;1999.90;999.90;;;;;;;9.03;100.00;102276.47;10220730;29;20055;-69
2024/02/20 20:44:41;;;;;;;1999.90;999.90;;;;;;;9.07;100.00;102266.81;10220964;29;20051;-69
2024/02/20 20:49:45;;;;;;;1999.90;999.90;;;;;;;8.99;100.00;102258.31;10221272;29;20058;-69
2024/02/20 20:54:48;;;;;;;1999.90;999.90;;;;;;;8.95;100.00;102256.69;10221678;29;20055;-69
2024/02/20 20:59:50;;;;;;;1999.90;999.90;;;;;;;8.92;100.00;102241.94;10221510;29;20054;-69
2024/02/20 21:04:52;;;;;;;1999.90;999.90;;;;;;;8.91;100.00;102240.25;10220532;29;20047;-71
2024/02/20 21:09:55;;;;;;;1999.90;999.90;;;;;;;8.97;100.00;102234.84;10219377;29;20484;-69
2024/02/20 21:14:57;;;;;;;1999.90;999.90;;;;;;;8.94;100.00;102237.53;10220384;29;20099;-69
2024/02/20 21:20:00;;;;;;;1999.90;999.90;;;;;;;8.89;100.00;102227.22;10220203;29;20054;-69
2024/02/20 21:25:02;;;;;;;1999.90;999.90;;;;;;;8.70;100.00;102224.25;10220065;29;20533;-69
2024/02/20 21:30:06;;;;;;;1999.90;999.90;;;;;;;8.79;100.00;102246.63;10219611;29;20047;-69
2024/02/20 21:35:12;;;;;;;1999.90;999.90;;;;;;;9.08;100.00;102242.41;10219147;29;20102;-69
2024/02/20 21:40:14;;;;;;;1999.90;999.90;;;;;;;8.79;100.00;102235.34;10219399;29;20496;-69
2024/02/20 21:45:18;;;;;;;1999.90;999.90;;;;;;;8.88;100.00;102240.34;10218768;29;20054;-69
2024/02/20 21:50:20;;;;;;;1999.90;999.90;;;;;;;8.87;100.00;102236.84;10218995;29;20051;-69
2024/02/20 21:55:23;;;;;;;1999.90;999.90;;;;;;;8.80;100.00;102237.06;10218730;29;20058;-69